Time,TemperatureF,DewpointF,PressureIn,WindDirection,WindDirectionDegrees,WindSpeedMPH,WindSpeedGustMPH,Humidity,HourlyPrecipIn,Conditions,Clouds,dailyrainin,SoftwareType,DateUTC
2013-01-25 00:01:00,19.4,10.8,29.64,SE,135,1.1,12.8,69,0.00,,,0.00,WUHU21623XXSP,2013-01-25 05:01:00,
2013-01-25 00:02:00,19.4,10.4,29.64,ESE,112,11.9,12.8,68,0.00,,,0.00,WUHU21623XXSP,2013-01-25 05:02:00,
2013-01-25 00:03:00,19.4,10.4,29.64,SE,135,5.6,12.8,68,0.00,,,0.00,WUHU21623XXSP,2013-01-25 05:03:00,
2013-01-25 00:08:00,19.4,10.4,29.62,ESE,112,4.5,11.9,68,0.00,,,0.00,WUHU21623XXSP,2013-01-25 05:08:00,
2013-01-25 00:13:00,19.2,10.3,29.63,SSE,157,3.1,5.6,68,0.00,,,0.00,WUHU21623XXSP,2013-01-25 05:13:00,
2013-01-25 00:18:00,19.2,10.3,29.63,SW,225,3.1,3.1,68,0.00,,,0.00,WUHU21623XXSP,2013-01-25 05:18:00,
2013-01-25 00:23:00,19.2,9.9,29.62,WSW,247,2.5,3.1,67,0.00,,,0.00,WUHU21623XXSP,2013-01-25 05:23:00,
2013-01-25 00:28:00,19.2,10.3,29.62,SSE,157,6.0,7.4,68,0.00,,,0.00,WUHU21623XXSP,2013-01-25 05:28:00,
2013-01-25 00:33:00,19.2,9.9,29.61,SE,135,1.3,7.4,67,0.00,,,0.00,WUHU21623XXSP,2013-01-25 05:33:00,
2013-01-25 00:38:00,19.2,9.9,29.60,South,180,4.7,4.7,67,0.00,,,0.00,WUHU21623XXSP,2013-01-25 05:38:00,
2013-01-25 00:43:00,19.2,9.9,29.60,SE,135,10.7,10.7,67,0.00,,,0.00,WUHU21623XXSP,2013-01-25 05:43:00,
2013-01-25 00:48:00,19.2,9.9,29.60,SE,135,10.7,10.7,67,0.00,,,0.00,WUHU21623XXSP,2013-01-25 05:48:00,
2013-01-25 00:53:00,19.2,9.9,29.58,WSW,247,3.6,10.7,67,0.00,,,0.00,WUHU21623XXSP,2013-01-25 05:53:00,
2013-01-25 00:58:00,19.2,9.9,29.58,SE,135,11.4,11.4,67,0.00,,,0.00,WUHU21623XXSP,2013-01-25 05:58:00,
2013-01-25 01:03:00,19.0,9.8,29.58,SSE,157,2.0,11.4,67,0.00,,,0.00,WUHU21623XXSP,2013-01-25 06:03:00,
2013-01-25 01:08:00,19.2,10.3,29.59,North,0,0.0,11.4,68,0.00,,,0.00,WUHU21623XXSP,2013-01-25 06:08:00,
2013-01-25 01:13:00,19.0,10.1,29.60,SE,135,2.9,9.6,68,0.00,,,0.00,WUHU21623XXSP,2013-01-25 06:13:00,
2013-01-25 01:18:00,19.2,10.3,29.59,ENE,67,6.0,6.0,68,0.00,,,0.00,WUHU21623XXSP,2013-01-25 06:18:00,
2013-01-25 01:23:00,19.2,10.3,29.60,South,180,2.5,6.0,68,0.00,,,0.00,WUHU21623XXSP,2013-01-25 06:23:00,
2013-01-25 01:28:00,19.2,10.3,29.59,SW,225,0.0,2.5,68,0.00,,,0.00,WUHU21623XXSP,2013-01-25 06:28:00,
2013-01-25 01:33:00,19.2,9.9,29.60,North,0,0.0,2.5,67,0.00,,,0.00,WUHU21623XXSP,2013-01-25 06:33:00,
2013-01-25 01:38:00,19.2,9.9,29.61,SE,135,5.1,5.1,67,0.00,,,0.00,WUHU21623XXSP,2013-01-25 06:38:00,
2013-01-25 01:43:00,19.2,9.9,29.61,SSE,157,0.0,5.1,67,0.00,,,0.00,WUHU21623XXSP,2013-01-25 06:43:00,
2013-01-25 01:48:00,19.2,9.9,29.60,ENE,67,0.0,2.9,67,0.00,,,0.00,WUHU21623XXSP,2013-01-25 06:48:00,
2013-01-25 01:53:00,19.2,9.9,29.60,NNE,22,4.0,5.6,67,0.00,,,0.00,WUHU21623XXSP,2013-01-25 06:53:00,
2013-01-25 01:58:00,19.2,9.9,29.60,SW,225,0.0,5.6,67,0.00,,,0.00,WUHU21623XXSP,2013-01-25 06:58:00,
2013-01-25 02:03:00,19.4,10.1,29.60,ESE,112,2.0,4.0,67,0.00,,,0.00,WUHU21623XXSP,2013-01-25 07:03:00,
2013-01-25 02:08:00,19.4,10.1,29.59,SE,135,6.0,6.0,67,0.00,,,0.00,WUHU21623XXSP,2013-01-25 07:08:00,
2013-01-25 02:13:00,19.4,10.1,29.59,ESE,112,7.6,7.6,67,0.00,,,0.00,WUHU21623XXSP,2013-01-25 07:13:00,
2013-01-25 02:18:00,19.4,10.1,29.59,ENE,67,0.0,7.6,67,0.00,,,0.00,WUHU21623XXSP,2013-01-25 07:18:00,
2013-01-25 02:23:00,19.4,10.1,29.58,East,90,0.0,2.2,67,0.00,,,0.00,WUHU21623XXSP,2013-01-25 07:23:00,
2013-01-25 02:28:00,19.4,10.1,29.58,ESE,112,0.0,4.0,67,0.00,,,0.00,WUHU21623XXSP,2013-01-25 07:28:00,
2013-01-25 02:33:00,19.6,10.3,29.57,SSE,157,1.3,4.0,67,0.00,,,0.00,WUHU21623XXSP,2013-01-25 07:33:00,
2013-01-25 02:38:00,19.6,10.3,29.57,SSE,157,1.8,4.5,67,0.00,,,0.00,WUHU21623XXSP,2013-01-25 07:38:00,
2013-01-25 02:43:00,19.6,10.3,29.58,SE,135,5.1,8.1,67,0.00,,,0.00,WUHU21623XXSP,2013-01-25 07:43:00,
2013-01-25 02:48:00,19.6,10.3,29.58,SE,135,4.3,8.1,67,0.00,,,0.00,WUHU21623XXSP,2013-01-25 07:48:00,
2013-01-25 02:53:00,19.6,10.3,29.58,SE,135,1.3,4.3,67,0.00,,,0.00,WUHU21623XXSP,2013-01-25 07:53:00,
2013-01-25 02:58:00,19.8,10.5,29.57,SE,135,3.6,3.6,67,0.00,,,0.00,WUHU21623XXSP,2013-01-25 07:58:00,
2013-01-25 03:03:00,19.8,10.5,29.57,SSE,157,4.0,11.9,67,0.00,,,0.00,WUHU21623XXSP,2013-01-25 08:03:00,
2013-01-25 03:08:00,19.8,10.5,29.56,ESE,112,8.9,11.9,67,0.00,,,0.00,WUHU21623XXSP,2013-01-25 08:08:00,
2013-01-25 03:13:00,19.8,10.5,29.56,ESE,112,0.0,8.9,67,0.00,,,0.00,WUHU21623XXSP,2013-01-25 08:13:00,
2013-01-25 03:18:00,19.8,10.5,29.55,SE,135,1.6,1.6,67,0.00,,,0.00,WUHU21623XXSP,2013-01-25 08:18:00,
2013-01-25 03:23:00,19.8,10.5,29.54,SSE,157,1.6,1.6,67,0.00,,,0.00,WUHU21623XXSP,2013-01-25 08:23:00,
2013-01-25 03:29:00,19.8,10.5,29.55,South,180,2.5,9.2,67,0.00,,,0.00,WUHU21623XXSP,2013-01-25 08:29:00,
2013-01-25 03:34:00,19.8,10.5,29.55,SSW,202,0.0,9.2,67,0.00,,,0.00,WUHU21623XXSP,2013-01-25 08:34:00,
2013-01-25 03:39:00,19.9,10.6,29.54,WSW,247,0.0,0.0,67,0.00,,,0.00,WUHU21623XXSP,2013-01-25 08:39:00,
2013-01-25 03:44:00,19.8,10.1,29.54,SE,135,6.5,6.5,66,0.00,,,0.00,WUHU21623XXSP,2013-01-25 08:44:00,
2013-01-25 03:49:00,19.9,10.3,29.53,SE,135,3.6,6.5,66,0.00,,,0.00,WUHU21623XXSP,2013-01-25 08:49:00,
2013-01-25 03:54:00,19.8,10.1,29.53,SSE,157,2.0,3.6,66,0.00,,,0.00,WUHU21623XXSP,2013-01-25 08:54:00,
2013-01-25 03:59:00,19.8,10.1,29.53,SE,135,1.8,3.1,66,0.00,,,0.00,WUHU21623XXSP,2013-01-25 08:59:00,
2013-01-25 04:04:00,19.8,10.1,29.52,SE,135,6.9,6.9,66,0.00,,,0.00,WUHU21623XXSP,2013-01-25 09:04:00,
2013-01-25 04:09:00,19.8,10.1,29.51,WSW,247,0.0,6.9,66,0.00,,,0.00,WUHU21623XXSP,2013-01-25 09:09:00,
2013-01-25 04:14:00,19.8,10.1,29.51,SE,135,9.2,9.2,66,0.00,,,0.00,WUHU21623XXSP,2013-01-25 09:14:00,
2013-01-25 04:19:00,19.8,10.1,29.51,NE,45,0.0,9.2,66,0.00,,,0.00,WUHU21623XXSP,2013-01-25 09:19:00,
2013-01-25 04:24:00,19.9,10.3,29.50,SSE,157,3.6,9.2,66,0.00,,,0.00,WUHU21623XXSP,2013-01-25 09:24:00,
2013-01-25 04:29:00,19.9,10.3,29.50,NE,45,0.0,3.6,66,0.00,,,0.00,WUHU21623XXSP,2013-01-25 09:29:00,
2013-01-25 04:34:00,19.9,10.3,29.49,SE,135,5.4,5.4,66,0.00,,,0.00,WUHU21623XXSP,2013-01-25 09:34:00,
2013-01-25 04:39:00,19.9,10.3,29.48,WSW,247,5.1,8.7,66,0.00,,,0.00,WUHU21623XXSP,2013-01-25 09:39:00,
2013-01-25 04:44:00,19.9,9.9,29.48,ESE,112,6.3,8.7,65,0.00,,,0.00,WUHU21623XXSP,2013-01-25 09:44:00,
2013-01-25 04:49:00,19.9,9.9,29.48,ENE,67,2.7,6.3,65,0.00,,,0.00,WUHU21623XXSP,2013-01-25 09:49:00,
2013-01-25 04:54:00,19.9,9.9,29.47,SE,135,8.5,8.5,65,0.00,,,0.00,WUHU21623XXSP,2013-01-25 09:54:00,
2013-01-25 04:59:00,19.9,9.9,29.46,SE,135,4.5,8.5,65,0.00,,,0.00,WUHU21623XXSP,2013-01-25 09:59:00,
2013-01-25 05:04:00,19.9,9.9,29.46,SE,135,7.6,7.6,65,0.00,,,0.00,WUHU21623XXSP,2013-01-25 10:04:00,
2013-01-25 05:09:00,19.9,9.9,29.46,North,0,1.6,7.6,65,0.00,,,0.00,WUHU21623XXSP,2013-01-25 10:09:00,
2013-01-25 05:14:00,19.9,9.9,29.45,WSW,247,0.0,1.6,65,0.00,,,0.00,WUHU21623XXSP,2013-01-25 10:14:00,
2013-01-25 05:19:00,19.9,9.9,29.45,ENE,67,0.0,4.7,65,0.00,,,0.00,WUHU21623XXSP,2013-01-25 10:19:00,
2013-01-25 05:24:00,19.9,9.9,29.44,SSE,157,2.5,4.7,65,0.00,,,0.00,WUHU21623XXSP,2013-01-25 10:24:00,
2013-01-25 05:29:00,19.9,9.9,29.44,SSE,157,2.5,3.1,65,0.00,,,0.00,WUHU21623XXSP,2013-01-25 10:29:00,
2013-01-25 05:34:00,19.9,9.9,29.44,SSW,202,1.1,2.5,65,0.00,,,0.00,WUHU21623XXSP,2013-01-25 10:34:00,
2013-01-25 05:39:00,19.9,9.9,29.44,SSW,202,1.1,1.1,65,0.00,,,0.00,WUHU21623XXSP,2013-01-25 10:39:00,
2013-01-25 05:44:00,20.1,9.9,29.43,SE,135,3.4,3.4,65,0.00,,,0.00,WUHU21623XXSP,2013-01-25 10:44:00,
2013-01-25 05:49:00,20.1,9.9,29.43,SSE,157,4.3,4.3,65,0.00,,,0.00,WUHU21623XXSP,2013-01-25 10:49:00,
2013-01-25 05:54:00,20.1,10.1,29.42,SSW,202,0.0,4.3,65,0.00,,,0.00,WUHU21623XXSP,2013-01-25 10:54:00,
2013-01-25 05:59:00,20.1,10.1,29.43,SE,135,2.0,6.5,65,0.00,,,0.00,WUHU21623XXSP,2013-01-25 10:59:00,
2013-01-25 06:04:00,20.1,10.1,29.43,NE,45,0.0,6.5,65,0.00,,,0.00,WUHU21623XXSP,2013-01-25 11:04:00,
2013-01-25 06:09:00,20.1,10.1,29.43,SE,135,1.3,1.3,65,0.00,,,0.00,WUHU21623XXSP,2013-01-25 11:09:00,
2013-01-25 06:14:00,20.1,10.1,29.42,SW,225,5.8,5.8,65,0.00,,,0.00,WUHU21623XXSP,2013-01-25 11:14:00,
2013-01-25 06:19:00,20.1,10.5,29.42,East,90,2.0,5.8,66,0.00,,,0.00,WUHU21623XXSP,2013-01-25 11:19:00,
2013-01-25 06:24:00,19.9,10.6,29.42,SSE,157,8.3,8.3,67,0.00,,,0.00,WUHU21623XXSP,2013-01-25 11:24:00,
2013-01-25 06:29:00,19.9,11.0,29.42,SE,135,3.4,8.3,68,0.00,,,0.00,WUHU21623XXSP,2013-01-25 11:29:00,
2013-01-25 06:34:00,19.8,11.1,29.42,ENE,67,5.4,6.0,69,0.00,,,0.00,WUHU21623XXSP,2013-01-25 11:34:00,
2013-01-25 06:39:00,19.6,11.3,29.42,SSE,157,6.0,6.0,70,0.00,,,0.00,WUHU21623XXSP,2013-01-25 11:39:00,
2013-01-25 06:44:00,19.2,11.6,29.41,ESE,112,0.0,7.6,72,0.00,,,0.00,WUHU21623XXSP,2013-01-25 11:44:00,
2013-01-25 06:49:00,19.2,11.6,29.42,SE,135,4.3,7.6,72,0.00,,,0.00,WUHU21623XXSP,2013-01-25 11:49:00,
2013-01-25 06:54:00,19.0,11.7,29.41,North,0,0.0,5.1,73,0.00,,,0.00,WUHU21623XXSP,2013-01-25 11:54:00,
2013-01-25 07:00:00,19.0,12.0,29.41,SE,135,1.8,3.8,74,0.00,,,0.00,WUHU21623XXSP,2013-01-25 12:00:00,
2013-01-25 07:04:00,19.0,12.0,29.41,ESE,112,0.0,2.7,74,0.00,,,0.00,WUHU21623XXSP,2013-01-25 12:04:00,
2013-01-25 07:10:00,19.0,12.3,29.41,East,90,3.8,3.8,75,0.00,,,0.00,WUHU21623XXSP,2013-01-25 12:10:00,
2013-01-25 07:15:00,18.9,12.1,29.41,SE,135,1.8,4.7,75,0.00,,,0.00,WUHU21623XXSP,2013-01-25 12:15:00,
2013-01-25 07:20:00,18.9,12.1,29.41,ESE,112,0.0,4.7,75,0.00,,,0.00,WUHU21623XXSP,2013-01-25 12:20:00,
2013-01-25 07:25:00,18.9,12.1,29.40,North,0,0.0,0.0,76,0.00,,,0.00,WUHU21623XXSP,2013-01-25 12:25:00,
2013-01-25 07:30:00,18.7,12.3,29.40,ESE,112,8.9,8.9,76,0.00,,,0.00,WUHU21623XXSP,2013-01-25 12:30:00,
2013-01-25 07:35:00,18.7,12.6,29.40,East,90,0.0,8.9,77,0.00,,,0.00,WUHU21623XXSP,2013-01-25 12:35:00,
2013-01-25 07:40:00,18.7,12.6,29.39,SE,135,5.8,5.8,77,0.00,,,0.00,WUHU21623XXSP,2013-01-25 12:40:00,
2013-01-25 07:45:00,18.7,12.6,29.39,SE,135,5.8,5.8,77,0.00,,,0.00,WUHU21623XXSP,2013-01-25 12:45:00,
2013-01-25 07:50:00,18.7,12.6,29.39,SE,135,3.1,5.8,77,0.00,,,0.00,WUHU21623XXSP,2013-01-25 12:50:00,
2013-01-25 07:55:00,18.5,12.4,29.38,SE,135,2.5,3.1,77,0.00,,,0.00,WUHU21623XXSP,2013-01-25 12:55:00,
2013-01-25 08:00:00,18.5,12.7,29.39,South,180,0.0,3.1,78,0.00,,,0.00,WUHU21623XXSP,2013-01-25 13:00:00,
2013-01-25 08:05:00,18.7,12.8,29.39,ENE,67,0.0,0.0,78,0.00,,,0.00,WUHU21623XXSP,2013-01-25 13:05:00,
2013-01-25 08:10:00,18.7,12.8,29.39,SE,135,0.0,0.0,78,0.00,,,0.00,WUHU21623XXSP,2013-01-25 13:10:00,
2013-01-25 08:15:00,18.7,12.8,29.39,SE,135,2.0,2.0,78,0.00,,,0.00,WUHU21623XXSP,2013-01-25 13:15:00,
2013-01-25 08:20:00,18.7,12.8,29.39,SSE,157,1.6,2.0,78,0.00,,,0.00,WUHU21623XXSP,2013-01-25 13:20:00,
2013-01-25 08:25:00,18.7,12.8,29.39,South,180,0.0,1.6,78,0.00,,,0.00,WUHU21623XXSP,2013-01-25 13:25:00,
2013-01-25 08:30:00,18.7,12.8,29.39,SE,135,0.0,0.0,78,0.00,,,0.00,WUHU21623XXSP,2013-01-25 13:30:00,
2013-01-25 08:35:00,18.9,13.3,29.38,SW,225,0.0,0.0,79,0.00,,,0.00,WUHU21623XXSP,2013-01-25 13:35:00,
2013-01-25 08:40:00,18.9,13.3,29.38,ESE,112,1.6,1.6,79,0.00,,,0.00,WUHU21623XXSP,2013-01-25 13:40:00,
2013-01-25 08:45:00,18.9,13.2,29.37,ESE,112,0.0,1.6,79,0.00,,,0.00,WUHU21623XXSP,2013-01-25 13:45:00,
2013-01-25 08:50:00,19.0,13.5,29.37,SE,135,3.1,3.1,79,0.00,,,0.00,WUHU21623XXSP,2013-01-25 13:50:00,
2013-01-25 08:55:00,19.0,13.5,29.37,ESE,112,0.0,3.1,79,0.00,,,0.00,WUHU21623XXSP,2013-01-25 13:55:00,
2013-01-25 09:00:00,19.2,13.7,29.38,SSE,157,0.0,3.1,79,0.00,,,0.00,WUHU21623XXSP,2013-01-25 14:00:00,
2013-01-25 09:05:00,19.2,13.7,29.38,SSE,157,0.0,0.9,79,0.00,,,0.00,WUHU21623XXSP,2013-01-25 14:05:00,
2013-01-25 09:10:00,19.4,13.9,29.38,ESE,112,0.0,0.0,79,0.00,,,0.00,WUHU21623XXSP,2013-01-25 14:10:00,
2013-01-25 09:15:00,19.4,13.9,29.39,SE,135,0.0,0.0,79,0.00,,,0.00,WUHU21623XXSP,2013-01-25 14:15:00,
2013-01-25 09:20:00,19.8,14.2,29.39,ENE,67,0.0,0.0,79,0.00,,,0.00,WUHU21623XXSP,2013-01-25 14:20:00,
2013-01-25 09:25:00,20.5,15.0,29.39,SE,135,0.0,0.0,79,0.00,,,0.00,WUHU21623XXSP,2013-01-25 14:25:00,
2013-01-25 09:30:00,20.8,15.3,29.38,ESE,112,0.0,0.0,79,0.00,,,0.00,WUHU21623XXSP,2013-01-25 14:30:00,
2013-01-25 09:35:00,21.0,15.5,29.38,ESE,112,0.0,0.0,79,0.00,,,0.00,WUHU21623XXSP,2013-01-25 14:35:00,
2013-01-25 09:40:00,21.4,15.5,29.38,ESE,112,0.0,0.0,78,0.00,,,0.00,WUHU21623XXSP,2013-01-25 14:40:00,
2013-01-25 09:45:00,21.6,15.5,29.39,SE,135,0.0,0.0,78,0.00,,,0.00,WUHU21623XXSP,2013-01-25 14:45:00,
2013-01-25 09:51:00,21.9,16.1,29.38,ENE,67,0.0,0.0,78,0.00,,,0.00,WUHU21623XXSP,2013-01-25 14:51:00,
2013-01-25 09:56:00,22.3,16.3,29.38,SE,135,0.0,0.0,77,0.00,,,0.00,WUHU21623XXSP,2013-01-25 14:56:00,
2013-01-25 10:01:00,22.3,16.1,29.38,SSE,157,0.0,0.0,77,0.00,,,0.00,WUHU21623XXSP,2013-01-25 15:01:00,
2013-01-25 10:06:00,22.5,16.3,29.38,ESE,112,0.0,0.0,77,0.00,,,0.00,WUHU21623XXSP,2013-01-25 15:06:00,
2013-01-25 10:11:00,22.5,16.3,29.36,SE,135,0.0,2.2,77,0.00,,,0.00,WUHU21623XXSP,2013-01-25 15:11:00,
2013-01-25 10:16:00,22.3,15.8,29.37,SSE,157,0.0,2.2,76,0.00,,,0.00,WUHU21623XXSP,2013-01-25 15:16:00,
2013-01-25 10:21:00,21.9,15.7,29.36,SE,135,0.0,0.0,76,0.00,,,0.00,WUHU21623XXSP,2013-01-25 15:21:00,
2013-01-25 10:26:00,21.9,15.5,29.36,SE,135,0.0,0.0,76,0.00,,,0.00,WUHU21623XXSP,2013-01-25 15:26:00,
2013-01-25 10:31:00,22.1,15.8,29.36,SSW,202,0.0,0.0,77,0.00,,,0.00,WUHU21623XXSP,2013-01-25 15:31:00,
2013-01-25 10:36:00,22.8,16.7,29.37,SSE,157,0.0,0.0,77,0.00,,,0.00,WUHU21623XXSP,2013-01-25 15:36:00,
2013-01-25 10:41:00,23.4,16.9,29.37,SE,135,0.0,0.0,76,0.00,,,0.00,WUHU21623XXSP,2013-01-25 15:41:00,
2013-01-25 10:46:00,23.7,17.2,29.36,SSE,157,0.0,0.0,76,0.00,,,0.00,WUHU21623XXSP,2013-01-25 15:46:00,
2013-01-25 10:51:00,24.1,17.3,29.36,South,180,0.0,0.0,75,0.00,,,0.00,WUHU21623XXSP,2013-01-25 15:51:00,
2013-01-25 10:56:00,24.4,17.6,29.37,ESE,112,0.0,3.8,75,0.00,,,0.00,WUHU21623XXSP,2013-01-25 15:56:00,
2013-01-25 11:01:00,24.4,17.3,29.36,South,180,0.0,3.8,74,0.00,,,0.00,WUHU21623XXSP,2013-01-25 16:01:00,
2013-01-25 11:06:00,24.4,17.0,29.35,ESE,112,0.0,2.5,73,0.00,,,0.00,WUHU21623XXSP,2013-01-25 16:06:00,
2013-01-25 11:11:00,24.4,17.0,29.35,SE,135,0.0,2.5,73,0.00,,,0.00,WUHU21623XXSP,2013-01-25 16:11:00,
2013-01-25 11:16:00,24.6,17.1,29.35,South,180,0.0,0.0,73,0.00,,,0.00,WUHU21623XXSP,2013-01-25 16:16:00,
2013-01-25 11:21:00,25.2,17.5,29.36,NW,315,0.0,0.0,73,0.00,,,0.00,WUHU21623XXSP,2013-01-25 16:21:00,
2013-01-25 11:26:00,25.7,17.9,29.36,SW,225,0.0,4.3,72,0.00,,,0.00,WUHU21623XXSP,2013-01-25 16:26:00,
2013-01-25 11:31:00,26.2,18.4,29.35,SW,225,1.3,4.3,72,0.00,,,0.00,WUHU21623XXSP,2013-01-25 16:31:00,
2013-01-25 11:36:00,26.6,18.4,29.35,South,180,2.5,4.5,71,0.00,,,0.00,WUHU21623XXSP,2013-01-25 16:36:00,
2013-01-25 11:41:00,27.1,19.0,29.35,SW,225,0.0,4.5,71,0.00,,,0.00,WUHU21623XXSP,2013-01-25 16:41:00,
2013-01-25 11:46:00,27.7,19.2,29.35,WSW,247,3.4,3.4,70,0.00,,,0.00,WUHU21623XXSP,2013-01-25 16:46:00,
2013-01-25 11:51:00,28.0,19.2,29.34,ESE,112,0.0,3.4,69,0.00,,,0.00,WUHU21623XXSP,2013-01-25 16:51:00,
2013-01-25 11:56:00,28.2,19.4,29.34,South,180,0.9,4.9,69,0.00,,,0.00,WUHU21623XXSP,2013-01-25 16:56:00,
2013-01-25 12:01:00,28.6,19.4,29.34,SW,225,2.2,4.9,68,0.00,,,0.00,WUHU21623XXSP,2013-01-25 17:01:00,
2013-01-25 12:06:00,28.9,19.7,29.33,SW,225,0.0,2.2,68,0.00,,,0.00,WUHU21623XXSP,2013-01-25 17:06:00,
2013-01-25 12:11:00,29.1,19.5,29.33,SW,225,3.6,3.6,67,0.00,,,0.00,WUHU21623XXSP,2013-01-25 17:11:00,
2013-01-25 12:16:00,29.1,19.1,29.32,South,180,2.2,3.6,66,0.00,,,0.00,WUHU21623XXSP,2013-01-25 17:16:00,
2013-01-25 12:21:00,28.9,19.0,29.32,WSW,247,0.0,3.6,66,0.00,,,0.00,WUHU21623XXSP,2013-01-25 17:21:00,
2013-01-25 12:26:00,28.9,19.0,29.32,SW,225,0.0,2.2,66,0.00,,,0.00,WUHU21623XXSP,2013-01-25 17:26:00,
2013-01-25 12:31:00,29.1,19.1,29.32,South,180,0.0,6.0,66,0.00,,,0.00,WUHU21623XXSP,2013-01-25 17:31:00,
2013-01-25 12:36:00,29.1,19.1,29.32,WSW,247,4.7,6.0,66,0.00,,,0.00,WUHU21623XXSP,2013-01-25 17:36:00,
2013-01-25 12:41:00,28.6,18.3,29.32,SSW,202,6.3,6.3,65,0.00,,,0.00,WUHU21623XXSP,2013-01-25 17:41:00,
2013-01-25 12:46:00,28.0,18.1,29.32,NW,315,0.0,6.3,66,0.00,,,0.00,WUHU21623XXSP,2013-01-25 17:46:00,
2013-01-25 12:51:00,27.5,17.6,29.31,South,180,3.4,3.4,66,0.00,,,0.00,WUHU21623XXSP,2013-01-25 17:51:00,
2013-01-25 12:56:00,27.3,17.8,29.31,WSW,247,1.6,3.4,67,0.00,,,0.00,WUHU21623XXSP,2013-01-25 17:56:00,
2013-01-25 13:01:00,27.3,17.8,29.31,West,270,1.1,1.6,67,0.00,,,0.00,WUHU21623XXSP,2013-01-25 18:01:00,
2013-01-25 13:06:00,27.1,17.6,29.30,West,270,1.1,1.1,67,0.00,,,0.00,WUHU21623XXSP,2013-01-25 18:06:00,
2013-01-25 13:11:00,26.8,17.4,29.31,West,270,3.8,3.8,67,0.00,,,0.00,WUHU21623XXSP,2013-01-25 18:11:00,
2013-01-25 13:16:00,26.4,17.2,29.29,WSW,247,1.1,3.8,68,0.00,,,0.00,WUHU21623XXSP,2013-01-25 18:16:00,
2013-01-25 13:21:00,26.4,17.2,29.29,WNW,292,1.3,3.8,69,0.00,,,0.00,WUHU21623XXSP,2013-01-25 18:21:00,
2013-01-25 13:26:00,26.4,17.6,29.29,WNW,292,2.2,2.2,69,0.00,,,0.00,WUHU21623XXSP,2013-01-25 18:26:00,
2013-01-25 13:31:00,26.4,17.6,29.29,West,270,0.7,2.2,69,0.00,,,0.00,WUHU21623XXSP,2013-01-25 18:31:00,
2013-01-25 13:36:00,26.6,17.8,29.29,West,270,0.0,2.2,69,0.00,,,0.00,WUHU21623XXSP,2013-01-25 18:36:00,
2013-01-25 13:41:00,27.0,18.1,29.28,SW,225,0.0,0.0,69,0.00,,,0.00,WUHU21623XXSP,2013-01-25 18:41:00,
2013-01-25 13:46:00,26.8,18.0,29.28,SW,225,2.2,3.8,69,0.00,,,0.00,WUHU21623XXSP,2013-01-25 18:46:00,
2013-01-25 13:51:00,26.6,17.8,29.28,West,270,7.6,7.6,69,0.00,,,0.00,WUHU21623XXSP,2013-01-25 18:51:00,
2013-01-25 13:56:00,26.4,17.6,29.28,WNW,292,2.2,7.6,69,0.00,,,0.00,WUHU21623XXSP,2013-01-25 18:56:00,
2013-01-25 14:02:00,26.2,17.4,29.28,West,270,2.5,2.5,69,0.00,,,0.00,WUHU21623XXSP,2013-01-25 19:02:00,
2013-01-25 14:07:00,26.1,17.2,29.27,West,270,5.6,5.6,69,0.00,,,0.00,WUHU21623XXSP,2013-01-25 19:07:00,
2013-01-25 14:12:00,25.7,17.1,29.27,West,270,5.6,5.6,69,0.00,,,0.00,WUHU21623XXSP,2013-01-25 19:12:00,
2013-01-25 14:17:00,25.9,17.4,29.26,West,270,3.4,5.6,70,0.00,,,0.00,WUHU21623XXSP,2013-01-25 19:17:00,
2013-01-25 14:22:00,26.1,17.6,29.27,WNW,292,7.6,7.6,70,0.00,,,0.00,WUHU21623XXSP,2013-01-25 19:22:00,
2013-01-25 14:27:00,25.9,17.4,29.26,WSW,247,7.4,7.6,70,0.00,,,0.00,WUHU21623XXSP,2013-01-25 19:27:00,
2013-01-25 14:32:00,25.7,17.2,29.26,West,270,3.8,7.4,70,0.00,,,0.00,WUHU21623XXSP,2013-01-25 19:32:00,
2013-01-25 14:37:00,25.9,17.4,29.26,West,270,0.0,4.3,70,0.00,,,0.00,WUHU21623XXSP,2013-01-25 19:37:00,
2013-01-25 14:42:00,25.9,17.4,29.26,West,270,0.0,6.7,70,0.00,,,0.00,WUHU21623XXSP,2013-01-25 19:42:00,
2013-01-25 14:47:00,25.7,17.2,29.25,WSW,247,3.1,6.7,70,0.00,,,0.00,WUHU21623XXSP,2013-01-25 19:47:00,
2013-01-25 14:52:00,25.9,17.4,29.25,WSW,247,5.4,5.4,70,0.00,,,0.00,WUHU21623XXSP,2013-01-25 19:52:00,
2013-01-25 14:57:00,25.9,17.4,29.25,West,270,0.0,5.4,70,0.00,,,0.00,WUHU21623XXSP,2013-01-25 19:57:00,
2013-01-25 15:02:00,25.7,17.2,29.25,West,270,0.0,5.8,70,0.00,,,0.00,WUHU21623XXSP,2013-01-25 20:02:00,
2013-01-25 15:07:00,25.7,17.2,29.25,West,270,0.0,5.8,70,0.00,,,0.00,WUHU21623XXSP,2013-01-25 20:07:00,
2013-01-25 15:12:00,25.9,17.7,29.25,West,270,4.0,4.0,71,0.00,,,0.00,WUHU21623XXSP,2013-01-25 20:12:00,
2013-01-25 15:17:00,25.7,17.5,29.26,West,270,4.0,4.0,71,0.00,,,0.00,WUHU21623XXSP,2013-01-25 20:17:00,
2013-01-25 15:22:00,25.7,17.5,29.26,WSW,247,0.0,4.0,71,0.00,,,0.00,WUHU21623XXSP,2013-01-25 20:22:00,
2013-01-25 15:27:00,25.5,17.1,29.26,West,270,2.5,4.9,70,0.00,,,0.00,WUHU21623XXSP,2013-01-25 20:27:00,
2013-01-25 15:32:00,25.3,17.2,29.26,West,270,4.9,4.9,71,0.00,,,0.00,WUHU21623XXSP,2013-01-25 20:32:00,
2013-01-25 15:37:00,25.3,17.2,29.26,West,270,5.1,5.1,71,0.00,,,0.00,WUHU21623XXSP,2013-01-25 20:37:00,
2013-01-25 15:42:00,25.3,17.5,29.26,West,270,6.0,6.0,72,0.00,,,0.00,WUHU21623XXSP,2013-01-25 20:42:00,
2013-01-25 15:47:00,25.3,17.5,29.27,West,270,2.2,6.0,72,0.00,,,0.00,WUHU21623XXSP,2013-01-25 20:47:00,
2013-01-25 15:52:00,25.2,17.3,29.27,West,270,2.9,2.9,72,0.00,,,0.00,WUHU21623XXSP,2013-01-25 20:52:00,
2013-01-25 15:57:00,25.2,17.3,29.27,West,270,0.0,6.3,72,0.00,,,0.00,WUHU21623XXSP,2013-01-25 20:57:00,
2013-01-25 16:02:00,25.0,17.1,29.27,WSW,247,0.0,8.5,72,0.00,,,0.00,WUHU21623XXSP,2013-01-25 21:02:00,
2013-01-25 16:07:00,25.0,17.1,29.26,West,270,3.1,8.5,72,0.00,,,0.00,WUHU21623XXSP,2013-01-25 21:07:00,
2013-01-25 16:12:00,25.2,17.3,29.27,West,270,3.6,3.6,72,0.00,,,0.00,WUHU21623XXSP,2013-01-25 21:12:00,
2013-01-25 16:17:00,25.2,17.3,29.27,West,270,8.9,8.9,72,0.00,,,0.00,WUHU21623XXSP,2013-01-25 21:17:00,
2013-01-25 16:22:00,25.2,17.3,29.27,WNW,292,2.5,8.9,72,0.00,,,0.00,WUHU21623XXSP,2013-01-25 21:22:00,
2013-01-25 16:27:00,25.2,17.7,29.28,West,270,0.9,2.5,73,0.00,,,0.00,WUHU21623XXSP,2013-01-25 21:27:00,
2013-01-25 16:32:00,25.0,17.5,29.28,West,270,2.0,6.3,73,0.00,,,0.00,WUHU21623XXSP,2013-01-25 21:32:00,
2013-01-25 16:37:00,25.0,17.5,29.27,West,270,0.0,6.3,73,0.00,,,0.00,WUHU21623XXSP,2013-01-25 21:37:00,
2013-01-25 16:42:00,24.8,17.3,29.27,West,270,7.6,7.6,73,0.00,,,0.00,WUHU21623XXSP,2013-01-25 21:42:00,
2013-01-25 16:47:00,24.6,17.1,29.27,WSW,247,1.6,7.6,73,0.00,,,0.00,WUHU21623XXSP,2013-01-25 21:47:00,
2013-01-25 16:52:00,24.6,17.1,29.27,West,270,3.1,7.2,73,0.00,,,0.00,WUHU21623XXSP,2013-01-25 21:52:00,
2013-01-25 16:57:00,24.6,17.5,29.27,West,270,0.0,3.1,74,0.00,,,0.00,WUHU21623XXSP,2013-01-25 21:57:00,
2013-01-25 17:02:00,25.0,17.8,29.27,WSW,247,0.0,1.8,74,0.00,,,0.00,WUHU21623XXSP,2013-01-25 22:02:00,
2013-01-25 17:07:00,25.0,17.8,29.27,West,270,2.5,2.5,74,0.00,,,0.00,WUHU21623XXSP,2013-01-25 22:07:00,
2013-01-25 17:12:00,25.0,17.8,29.27,WSW,247,3.1,3.1,74,0.00,,,0.00,WUHU21623XXSP,2013-01-25 22:12:00,
2013-01-25 17:17:00,24.6,17.5,29.27,West,270,0.0,3.1,74,0.00,,,0.00,WUHU21623XXSP,2013-01-25 22:17:00,
2013-01-25 17:22:00,24.8,17.6,29.27,WSW,247,0.0,0.9,74,0.00,,,0.00,WUHU21623XXSP,2013-01-25 22:22:00,
2013-01-25 17:27:00,24.6,17.5,29.26,West,270,5.8,5.8,74,0.00,,,0.00,WUHU21623XXSP,2013-01-25 22:27:00,
2013-01-25 17:32:00,24.6,17.5,29.26,SW,225,2.0,5.8,74,0.00,,,0.00,WUHU21623XXSP,2013-01-25 22:32:00,
2013-01-25 17:37:00,24.6,17.5,29.26,WSW,247,0.0,2.9,74,0.00,,,0.00,WUHU21623XXSP,2013-01-25 22:37:00,
2013-01-25 17:42:00,24.6,17.8,29.26,West,270,0.0,1.6,75,0.00,,,0.00,WUHU21623XXSP,2013-01-25 22:42:00,
2013-01-25 17:47:00,24.6,18.0,29.26,WSW,247,2.0,2.0,75,0.00,,,0.00,WUHU21623XXSP,2013-01-25 22:47:00,
2013-01-25 17:52:00,24.6,17.8,29.26,West,270,0.0,2.0,75,0.00,,,0.00,WUHU21623XXSP,2013-01-25 22:52:00,
2013-01-25 17:57:00,24.6,17.8,29.27,WSW,247,0.0,2.0,75,0.00,,,0.00,WUHU21623XXSP,2013-01-25 22:57:00,
2013-01-25 18:02:00,24.8,17.8,29.27,SW,225,2.5,2.5,75,0.00,,,0.00,WUHU21623XXSP,2013-01-25 23:02:00,
2013-01-25 18:07:00,24.8,18.0,29.27,WSW,247,3.1,3.1,75,0.00,,,0.00,WUHU21623XXSP,2013-01-25 23:07:00,
2013-01-25 18:12:00,24.8,18.0,29.27,West,270,0.0,3.1,75,0.00,,,0.00,WUHU21623XXSP,2013-01-25 23:12:00,
2013-01-25 18:17:00,24.8,18.0,29.27,West,270,1.8,3.1,75,0.00,,,0.00,WUHU21623XXSP,2013-01-25 23:17:00,
2013-01-25 18:22:00,24.8,18.0,29.27,SW,225,0.0,1.8,75,0.00,,,0.00,WUHU21623XXSP,2013-01-25 23:22:00,
2013-01-25 18:27:00,24.8,18.0,29.27,WSW,247,0.0,3.1,75,0.00,,,0.00,WUHU21623XXSP,2013-01-25 23:27:00,
2013-01-25 18:32:00,25.0,18.4,29.27,NW,315,0.0,3.1,76,0.00,,,0.00,WUHU21623XXSP,2013-01-25 23:32:00,
2013-01-25 18:37:00,25.0,18.4,29.28,WNW,292,0.0,2.0,76,0.00,,,0.00,WUHU21623XXSP,2013-01-25 23:37:00,
2013-01-25 18:42:00,25.0,18.4,29.28,NW,315,1.8,4.5,76,0.00,,,0.00,WUHU21623XXSP,2013-01-25 23:42:00,
2013-01-25 18:47:00,25.0,18.4,29.28,West,270,0.0,4.5,76,0.00,,,0.00,WUHU21623XXSP,2013-01-25 23:47:00,
2013-01-25 18:52:00,25.0,18.4,29.29,West,270,0.0,3.6,76,0.00,,,0.00,WUHU21623XXSP,2013-01-25 23:52:00,
2013-01-25 18:58:00,25.0,18.4,29.29,West,270,0.0,2.7,76,0.00,,,0.00,WUHU21623XXSP,2013-01-25 23:58:00,
2013-01-25 19:02:00,25.2,18.6,29.29,West,270,0.0,0.0,76,0.00,,,0.00,WUHU21623XXSP,2013-01-26 00:02:00,
2013-01-25 19:07:00,25.2,18.6,29.29,NW,315,0.0,0.0,76,0.00,,,0.00,WUHU21623XXSP,2013-01-26 00:07:00,
2013-01-25 19:12:00,25.2,18.6,29.29,NW,315,0.0,0.0,76,0.00,,,0.00,WUHU21623XXSP,2013-01-26 00:12:00,
2013-01-25 19:17:00,25.3,18.8,29.29,SW,225,0.0,0.0,76,0.00,,,0.00,WUHU21623XXSP,2013-01-26 00:17:00,
2013-01-25 19:22:00,25.3,18.8,29.29,SW,225,0.0,0.0,76,0.00,,,0.00,WUHU21623XXSP,2013-01-26 00:22:00,
2013-01-25 19:28:00,25.3,18.8,29.29,WSW,247,0.0,0.0,76,0.00,,,0.00,WUHU21623XXSP,2013-01-26 00:28:00,
2013-01-25 19:33:00,25.3,18.8,29.29,SSW,202,0.0,0.0,76,0.00,,,0.00,WUHU21623XXSP,2013-01-26 00:33:00,
2013-01-25 19:38:00,25.5,18.9,29.29,SSW,202,0.7,0.7,76,0.00,,,0.00,WUHU21623XXSP,2013-01-26 00:38:00,
2013-01-25 19:43:00,25.5,18.9,29.29,SSW,202,0.0,0.7,76,0.00,,,0.00,WUHU21623XXSP,2013-01-26 00:43:00,
2013-01-25 19:48:00,25.5,18.9,29.29,SSW,202,4.5,4.5,76,0.00,,,0.00,WUHU21623XXSP,2013-01-26 00:48:00,
2013-01-25 19:53:00,25.5,18.9,29.29,SW,225,0.0,4.5,76,0.00,,,0.00,WUHU21623XXSP,2013-01-26 00:53:00,
2013-01-25 19:58:00,25.5,18.9,29.29,SW,225,0.0,0.0,76,0.00,,,0.00,WUHU21623XXSP,2013-01-26 00:58:00,
2013-01-25 20:03:00,25.5,18.9,29.29,SW,225,0.0,0.0,76,0.00,,,0.00,WUHU21623XXSP,2013-01-26 01:03:00,
2013-01-25 20:08:00,25.5,18.9,29.29,WSW,247,0.0,0.0,76,0.00,,,0.00,WUHU21623XXSP,2013-01-26 01:08:00,
2013-01-25 20:13:00,25.5,18.9,29.29,WSW,247,0.0,0.0,76,0.00,,,0.00,WUHU21623XXSP,2013-01-26 01:13:00,
2013-01-25 20:18:00,25.5,18.9,29.29,WSW,247,0.0,0.0,76,0.00,,,0.00,WUHU21623XXSP,2013-01-26 01:18:00,
2013-01-25 20:23:00,25.5,18.9,29.29,South,180,0.0,0.0,76,0.00,,,0.00,WUHU21623XXSP,2013-01-26 01:23:00,
2013-01-25 20:28:00,25.5,18.9,29.29,SSW,202,0.0,0.0,76,0.00,,,0.00,WUHU21623XXSP,2013-01-26 01:28:00,
2013-01-25 20:33:00,25.5,18.9,29.29,West,270,0.0,0.0,76,0.00,,,0.00,WUHU21623XXSP,2013-01-26 01:33:00,
2013-01-25 20:38:00,25.5,18.9,29.29,ENE,67,0.0,0.0,76,0.00,,,0.00,WUHU21623XXSP,2013-01-26 01:38:00,
2013-01-25 20:43:00,25.5,18.9,29.29,West,270,0.0,0.0,76,0.00,,,0.00,WUHU21623XXSP,2013-01-26 01:43:00,
2013-01-25 20:48:00,25.5,18.9,29.29,SW,225,4.7,4.7,76,0.00,,,0.00,WUHU21623XXSP,2013-01-26 01:48:00,
2013-01-25 20:53:00,25.5,18.9,29.29,South,180,0.0,4.7,76,0.00,,,0.00,WUHU21623XXSP,2013-01-26 01:53:00,
2013-01-25 20:58:00,25.5,18.9,29.29,SW,225,0.0,3.6,76,0.00,,,0.00,WUHU21623XXSP,2013-01-26 01:58:00,
2013-01-25 21:03:00,25.3,18.8,29.29,SSW,202,1.6,3.6,76,0.00,,,0.00,WUHU21623XXSP,2013-01-26 02:03:00,
2013-01-25 21:08:00,25.3,18.8,29.29,WSW,247,0.0,5.4,76,0.00,,,0.00,WUHU21623XXSP,2013-01-26 02:08:00,
2013-01-25 21:13:00,25.3,18.8,29.29,West,270,0.0,5.4,76,0.00,,,0.00,WUHU21623XXSP,2013-01-26 02:13:00,
2013-01-25 21:18:00,25.2,18.6,29.29,SSW,202,3.6,3.6,76,0.00,,,0.00,WUHU21623XXSP,2013-01-26 02:18:00,
2013-01-25 21:23:00,25.0,18.8,29.28,WSW,247,7.4,7.4,77,0.00,,,0.00,WUHU21623XXSP,2013-01-26 02:23:00,
2013-01-25 21:28:00,25.0,18.8,29.28,South,180,4.7,7.4,77,0.00,,,0.00,WUHU21623XXSP,2013-01-26 02:28:00,
2013-01-25 21:33:00,25.0,18.8,29.29,SSE,157,3.1,6.0,77,0.00,,,0.00,WUHU21623XXSP,2013-01-26 02:33:00,
2013-01-25 21:38:00,24.6,18.4,29.29,SE,135,0.0,3.1,77,0.00,,,0.00,WUHU21623XXSP,2013-01-26 02:38:00,
2013-01-25 21:43:00,24.6,18.4,29.29,South,180,0.0,2.5,77,0.00,,,0.00,WUHU21623XXSP,2013-01-26 02:43:00,
2013-01-25 21:48:00,24.6,18.4,29.29,WSW,247,0.0,2.5,77,0.00,,,0.00,WUHU21623XXSP,2013-01-26 02:48:00,
2013-01-25 21:53:00,24.4,18.2,29.29,South,180,0.0,3.6,77,0.00,,,0.00,WUHU21623XXSP,2013-01-26 02:53:00,
2013-01-25 21:58:00,24.4,18.2,29.28,SSE,157,0.0,3.6,77,0.00,,,0.00,WUHU21623XXSP,2013-01-26 02:58:00,
2013-01-25 22:03:00,24.3,18.1,29.29,SW,225,0.0,2.2,77,0.00,,,0.00,WUHU21623XXSP,2013-01-26 03:03:00,
2013-01-25 22:08:00,24.1,17.9,29.29,WSW,247,1.6,2.2,77,0.00,,,0.00,WUHU21623XXSP,2013-01-26 03:08:00,
2013-01-25 22:13:00,24.1,17.9,29.28,NW,315,0.0,1.6,77,0.00,,,0.00,WUHU21623XXSP,2013-01-26 03:13:00,
2013-01-25 22:18:00,23.9,17.7,29.29,NW,315,0.0,1.3,77,0.00,,,0.00,WUHU21623XXSP,2013-01-26 03:18:00,
2013-01-25 22:23:00,23.7,17.5,29.29,West,270,0.0,0.0,77,0.00,,,0.00,WUHU21623XXSP,2013-01-26 03:23:00,
2013-01-25 22:28:00,23.5,17.4,29.29,West,270,0.0,0.0,77,0.00,,,0.00,WUHU21623XXSP,2013-01-26 03:28:00,
2013-01-25 22:33:00,23.2,16.7,29.29,WNW,292,0.0,0.0,76,0.00,,,0.00,WUHU21623XXSP,2013-01-26 03:33:00,
2013-01-25 22:38:00,22.8,16.7,29.29,West,270,0.0,0.0,77,0.00,,,0.00,WUHU21623XXSP,2013-01-26 03:38:00,
2013-01-25 22:43:00,22.8,16.7,29.29,SW,225,0.0,0.0,77,0.00,,,0.00,WUHU21623XXSP,2013-01-26 03:43:00,
2013-01-25 22:48:00,22.6,16.5,29.30,NW,315,0.0,1.6,77,0.00,,,0.00,WUHU21623XXSP,2013-01-26 03:48:00,
2013-01-25 22:53:00,22.5,16.3,29.29,West,270,0.0,1.6,77,0.00,,,0.00,WUHU21623XXSP,2013-01-26 03:53:00,
2013-01-25 22:58:00,22.3,16.1,29.29,WSW,247,3.6,3.6,77,0.00,,,0.00,WUHU21623XXSP,2013-01-26 03:58:00,
2013-01-25 23:03:00,22.6,16.5,29.30,WNW,292,2.9,5.8,77,0.00,,,0.00,WUHU21623XXSP,2013-01-26 04:03:00,
2013-01-25 23:08:00,22.6,16.5,29.29,West,270,3.4,5.8,77,0.00,,,0.00,WUHU21623XXSP,2013-01-26 04:08:00,
2013-01-25 23:13:00,22.8,16.7,29.29,West,270,2.9,4.3,77,0.00,,,0.00,WUHU21623XXSP,2013-01-26 04:13:00,
2013-01-25 23:18:00,22.6,16.5,29.30,WNW,292,1.3,4.9,77,0.00,,,0.00,WUHU21623XXSP,2013-01-26 04:18:00,
2013-01-25 23:23:00,22.6,16.5,29.30,West,270,0.0,4.9,77,0.00,,,0.00,WUHU21623XXSP,2013-01-26 04:23:00,
2013-01-25 23:28:00,22.6,16.7,29.30,West,270,3.4,3.4,78,0.00,,,0.00,WUHU21623XXSP,2013-01-26 04:28:00,
2013-01-25 23:33:00,22.6,16.8,29.30,WNW,292,2.0,6.7,78,0.00,,,0.00,WUHU21623XXSP,2013-01-26 04:33:00,
2013-01-25 23:38:00,22.6,16.8,29.30,West,270,2.5,6.7,78,0.00,,,0.00,WUHU21623XXSP,2013-01-26 04:38:00,
2013-01-25 23:43:00,22.5,16.3,29.30,West,270,2.0,3.6,77,0.00,,,0.00,WUHU21623XXSP,2013-01-26 04:43:00,
2013-01-25 23:48:00,22.3,16.1,29.31,West,270,0.0,2.5,77,0.00,,,0.00,WUHU21623XXSP,2013-01-26 04:48:00,
2013-01-25 23:53:00,22.1,16.0,29.31,West,270,2.0,2.7,77,0.00,,,0.00,WUHU21623XXSP,2013-01-26 04:53:00,
2013-01-25 23:58:00,21.9,15.8,29.31,WSW,247,4.5,4.5,77,0.00,,,0.00,WUHU21623XXSP,2013-01-26 04:58:00,